sensor_id;sensor_type;location;lat;lon;timestamp;P1;durP1;ratioP1;P2;durP2;ratioP2
31730;SDS011;18310;55.586;12.286;2023-04-03T00:01:08;3.35;;;0.98;;
31730;SDS011;18310;55.586;12.286;2023-04-03T00:04:12;6.00;;;0.98;;
31730;SDS011;18310;55.586;12.286;2023-04-03T00:07:16;5.13;;;0.77;;
31730;SDS011;18310;55.586;12.286;2023-04-03T00:10:21;3.97;;;1.10;;
31730;SDS011;18310;55.586;12.286;2023-04-03T00:13:25;3.88;;;1.05;;
31730;SDS011;18310;55.586;12.286;2023-04-03T00:16:29;3.83;;;0.93;;
31730;SDS011;18310;55.586;12.286;2023-04-03T00:19:33;6.05;;;1.00;;
31730;SDS011;18310;55.586;12.286;2023-04-03T00:22:36;6.00;;;0.77;;
31730;SDS011;18310;55.586;12.286;2023-04-03T00:25:40;3.63;;;0.60;;
31730;SDS011;18310;55.586;12.286;2023-04-03T00:28:44;1.42;;;0.52;;
31730;SDS011;18310;55.586;12.286;2023-04-03T00:31:48;3.75;;;0.68;;
31730;SDS011;18310;55.586;12.286;2023-04-03T00:34:52;3.42;;;0.40;;
31730;SDS011;18310;55.586;12.286;2023-04-03T00:37:55;2.08;;;0.52;;
31730;SDS011;18310;55.586;12.286;2023-04-03T00:47:23;0.98;;;0.40;;
31730;SDS011;18310;55.586;12.286;2023-04-03T00:50:28;4.38;;;0.90;;
31730;SDS011;18310;55.586;12.286;2023-04-03T00:53:33;3.47;;;0.68;;
31730;SDS011;18310;55.586;12.286;2023-04-03T00:56:40;2.20;;;0.43;;
31730;SDS011;18310;55.586;12.286;2023-04-03T00:59:44;2.27;;;0.47;;
31730;SDS011;18310;55.586;12.286;2023-04-03T01:02:51;2.33;;;0.43;;
31730;SDS011;18310;55.586;12.286;2023-04-03T01:05:55;2.58;;;0.52;;
31730;SDS011;18310;55.586;12.286;2023-04-03T01:08:58;2.73;;;0.73;;
31730;SDS011;18310;55.586;12.286;2023-04-03T01:15:19;3.72;;;0.52;;
31730;SDS011;18310;55.586;12.286;2023-04-03T01:18:25;6.72;;;0.60;;
31730;SDS011;18310;55.586;12.286;2023-04-03T01:21:46;3.22;;;0.80;;
31730;SDS011;18310;55.586;12.286;2023-04-03T01:25:01;1.45;;;0.47;;
31730;SDS011;18310;55.586;12.286;2023-04-03T01:28:05;4.17;;;0.93;;
31730;SDS011;18310;55.586;12.286;2023-04-03T01:31:12;3.75;;;0.40;;
31730;SDS011;18310;55.586;12.286;2023-04-03T01:34:23;2.05;;;0.30;;
31730;SDS011;18310;55.586;12.286;2023-04-03T01:37:27;1.75;;;0.47;;
31730;SDS011;18310;55.586;12.286;2023-04-03T01:40:30;1.13;;;0.30;;
31730;SDS011;18310;55.586;12.286;2023-04-03T01:43:34;2.28;;;0.38;;
31730;SDS011;18310;55.586;12.286;2023-04-03T01:46:38;5.75;;;0.70;;
31730;SDS011;18310;55.586;12.286;2023-04-03T01:49:42;3.23;;;0.73;;
31730;SDS011;18310;55.586;12.286;2023-04-03T01:52:46;8.00;;;0.73;;
31730;SDS011;18310;55.586;12.286;2023-04-03T01:55:50;4.57;;;0.65;;
31730;SDS011;18310;55.586;12.286;2023-04-03T01:58:53;2.43;;;0.77;;
31730;SDS011;18310;55.586;12.286;2023-04-03T02:01:57;4.05;;;0.70;;
31730;SDS011;18310;55.586;12.286;2023-04-03T02:05:02;4.97;;;0.60;;
31730;SDS011;18310;55.586;12.286;2023-04-03T02:08:06;3.95;;;0.88;;
31730;SDS011;18310;55.586;12.286;2023-04-03T02:11:09;1.97;;;0.43;;
31730;SDS011;18310;55.586;12.286;2023-04-03T02:14:12;2.53;;;0.55;;
31730;SDS011;18310;55.586;12.286;2023-04-03T02:17:16;4.47;;;0.60;;
31730;SDS011;18310;55.586;12.286;2023-04-03T02:20:20;2.85;;;0.47;;
31730;SDS011;18310;55.586;12.286;2023-04-03T02:23:25;2.13;;;0.60;;
31730;SDS011;18310;55.586;12.286;2023-04-03T02:26:28;4.93;;;0.60;;
31730;SDS011;18310;55.586;12.286;2023-04-03T02:29:31;1.93;;;0.60;;
31730;SDS011;18310;55.586;12.286;2023-04-03T02:32:35;3.90;;;0.50;;
31730;SDS011;18310;55.586;12.286;2023-04-03T02:35:40;3.97;;;0.77;;
31730;SDS011;18310;55.586;12.286;2023-04-03T02:38:43;4.35;;;0.57;;
31730;SDS011;18310;55.586;12.286;2023-04-03T02:41:47;10.35;;;0.80;;
31730;SDS011;18310;55.586;12.286;2023-04-03T02:44:50;3.78;;;0.77;;
31730;SDS011;18310;55.586;12.286;2023-04-03T02:47:54;3.20;;;0.50;;
31730;SDS011;18310;55.586;12.286;2023-04-03T02:50:58;3.77;;;0.50;;
31730;SDS011;18310;55.586;12.286;2023-04-03T02:54:02;2.53;;;0.60;;
31730;SDS011;18310;55.586;12.286;2023-04-03T02:57:06;3.22;;;1.08;;
31730;SDS011;18310;55.586;12.286;2023-04-03T03:00:11;3.83;;;0.65;;
31730;SDS011;18310;55.586;12.286;2023-04-03T03:03:15;4.55;;;0.60;;
31730;SDS011;18310;55.586;12.286;2023-04-03T03:06:19;7.20;;;0.77;;
31730;SDS011;18310;55.586;12.286;2023-04-03T03:09:23;4.07;;;1.05;;
31730;SDS011;18310;55.586;12.286;2023-04-03T03:12:27;6.65;;;0.63;;
31730;SDS011;18310;55.586;12.286;2023-04-03T03:15:34;1.35;;;0.40;;
31730;SDS011;18310;55.586;12.286;2023-04-03T03:18:37;4.50;;;0.60;;
31730;SDS011;18310;55.586;12.286;2023-04-03T03:21:42;3.67;;;0.80;;
31730;SDS011;18310;55.586;12.286;2023-04-03T03:24:45;3.55;;;0.52;;
31730;SDS011;18310;55.586;12.286;2023-04-03T03:27:49;3.20;;;0.50;;
31730;SDS011;18310;55.586;12.286;2023-04-03T03:30:52;3.07;;;0.80;;
31730;SDS011;18310;55.586;12.286;2023-04-03T03:33:56;6.72;;;0.80;;
31730;SDS011;18310;55.586;12.286;2023-04-03T03:37:01;1.93;;;0.63;;
31730;SDS011;18310;55.586;12.286;2023-04-03T03:40:04;2.47;;;0.90;;
31730;SDS011;18310;55.586;12.286;2023-04-03T03:43:09;2.17;;;0.50;;
31730;SDS011;18310;55.586;12.286;2023-04-03T03:46:12;4.97;;;0.80;;
31730;SDS011;18310;55.586;12.286;2023-04-03T03:49:16;3.22;;;0.75;;
31730;SDS011;18310;55.586;12.286;2023-04-03T03:52:21;3.70;;;0.50;;
31730;SDS011;18310;55.586;12.286;2023-04-03T03:55:25;6.05;;;1.02;;
31730;SDS011;18310;55.586;12.286;2023-04-03T03:58:28;3.45;;;0.55;;
31730;SDS011;18310;55.586;12.286;2023-04-03T04:01:31;2.53;;;0.67;;
31730;SDS011;18310;55.586;12.286;2023-04-03T04:04:37;4.00;;;0.68;;
31730;SDS011;18310;55.586;12.286;2023-04-03T04:07:42;4.33;;;0.60;;
31730;SDS011;18310;55.586;12.286;2023-04-03T04:10:46;4.95;;;1.08;;
31730;SDS011;18310;55.586;12.286;2023-04-03T04:13:49;2.25;;;0.57;;
31730;SDS011;18310;55.586;12.286;2023-04-03T04:16:53;4.20;;;1.15;;
31730;SDS011;18310;55.586;12.286;2023-04-03T04:19:56;4.07;;;0.80;;
31730;SDS011;18310;55.586;12.286;2023-04-03T04:23:01;3.20;;;0.77;;
31730;SDS011;18310;55.586;12.286;2023-04-03T04:26:04;2.05;;;0.70;;
31730;SDS011;18310;55.586;12.286;2023-04-03T04:29:08;3.90;;;0.90;;
31730;SDS011;18310;55.586;12.286;2023-04-03T04:35:15;3.83;;;0.70;;
31730;SDS011;18310;55.586;12.286;2023-04-03T04:38:20;2.70;;;0.80;;
31730;SDS011;18310;55.586;12.286;2023-04-03T04:41:24;6.10;;;1.17;;
31730;SDS011;18310;55.586;12.286;2023-04-03T04:44:27;4.00;;;1.20;;
31730;SDS011;18310;55.586;12.286;2023-04-03T04:47:31;4.90;;;1.27;;
31730;SDS011;18310;55.586;12.286;2023-04-03T04:50:34;4.80;;;1.13;;
31730;SDS011;18310;55.586;12.286;2023-04-03T04:53:39;3.90;;;1.20;;
31730;SDS011;18310;55.586;12.286;2023-04-03T04:56:43;2.83;;;0.88;;
31730;SDS011;18310;55.586;12.286;2023-04-03T04:59:46;4.37;;;0.90;;
31730;SDS011;18310;55.586;12.286;2023-04-03T05:02:49;2.60;;;0.83;;
31730;SDS011;18310;55.586;12.286;2023-04-03T05:05:53;5.07;;;1.02;;
31730;SDS011;18310;55.586;12.286;2023-04-03T05:08:57;6.53;;;0.90;;
31730;SDS011;18310;55.586;12.286;2023-04-03T05:12:02;2.97;;;0.80;;
31730;SDS011;18310;55.586;12.286;2023-04-03T05:15:07;2.67;;;0.90;;
31730;SDS011;18310;55.586;12.286;2023-04-03T05:18:11;6.50;;;1.73;;
31730;SDS011;18310;55.586;12.286;2023-04-03T05:21:14;8.27;;;1.83;;
31730;SDS011;18310;55.586;12.286;2023-04-03T05:24:21;4.00;;;1.30;;
31730;SDS011;18310;55.586;12.286;2023-04-03T05:27:25;5.90;;;1.20;;
31730;SDS011;18310;55.586;12.286;2023-04-03T05:30:30;6.82;;;1.52;;
31730;SDS011;18310;55.586;12.286;2023-04-03T05:33:33;11.47;;;2.40;;
31730;SDS011;18310;55.586;12.286;2023-04-03T05:36:37;6.55;;;1.77;;
31730;SDS011;18310;55.586;12.286;2023-04-03T05:39:42;10.48;;;1.98;;
31730;SDS011;18310;55.586;12.286;2023-04-03T05:42:45;3.55;;;1.70;;
31730;SDS011;18310;55.586;12.286;2023-04-03T05:45:48;7.93;;;1.55;;
31730;SDS011;18310;55.586;12.286;2023-04-03T05:48:52;4.17;;;1.37;;
31730;SDS011;18310;55.586;12.286;2023-04-03T05:51:55;11.07;;;1.30;;
31730;SDS011;18310;55.586;12.286;2023-04-03T05:55:00;5.72;;;1.30;;
31730;SDS011;18310;55.586;12.286;2023-04-03T05:58:04;6.30;;;1.20;;
31730;SDS011;18310;55.586;12.286;2023-04-03T06:01:09;10.60;;;1.10;;
31730;SDS011;18310;55.586;12.286;2023-04-03T06:04:13;4.80;;;1.80;;
31730;SDS011;18310;55.586;12.286;2023-04-03T06:07:17;6.32;;;1.23;;
31730;SDS011;18310;55.586;12.286;2023-04-03T06:10:25;6.32;;;1.27;;
31730;SDS011;18310;55.586;12.286;2023-04-03T06:13:29;9.85;;;1.33;;
31730;SDS011;18310;55.586;12.286;2023-04-03T06:16:33;7.68;;;1.33;;
31730;SDS011;18310;55.586;12.286;2023-04-03T06:19:40;4.70;;;1.13;;
31730;SDS011;18310;55.586;12.286;2023-04-03T06:22:43;6.97;;;2.05;;
31730;SDS011;18310;55.586;12.286;2023-04-03T06:25:49;3.83;;;1.45;;
31730;SDS011;18310;55.586;12.286;2023-04-03T06:28:52;5.25;;;1.20;;
31730;SDS011;18310;55.586;12.286;2023-04-03T06:31:55;5.03;;;0.98;;
31730;SDS011;18310;55.586;12.286;2023-04-03T06:34:59;5.68;;;1.45;;
31730;SDS011;18310;55.586;12.286;2023-04-03T06:38:03;5.80;;;1.27;;
31730;SDS011;18310;55.586;12.286;2023-04-03T06:41:12;4.60;;;1.25;;
31730;SDS011;18310;55.586;12.286;2023-04-03T06:44:16;4.45;;;0.90;;
31730;SDS011;18310;55.586;12.286;2023-04-03T06:47:19;3.07;;;0.93;;
31730;SDS011;18310;55.586;12.286;2023-04-03T06:50:23;7.47;;;1.10;;
31730;SDS011;18310;55.586;12.286;2023-04-03T06:53:27;6.00;;;1.52;;
31730;SDS011;18310;55.586;12.286;2023-04-03T06:56:31;3.78;;;0.57;;
31730;SDS011;18310;55.586;12.286;2023-04-03T06:59:35;3.30;;;0.70;;
31730;SDS011;18310;55.586;12.286;2023-04-03T07:02:38;6.65;;;1.10;;
31730;SDS011;18310;55.586;12.286;2023-04-03T07:05:42;5.75;;;1.10;;
31730;SDS011;18310;55.586;12.286;2023-04-03T07:08:46;2.53;;;0.65;;
31730;SDS011;18310;55.586;12.286;2023-04-03T07:14:57;4.47;;;1.02;;
31730;SDS011;18310;55.586;12.286;2023-04-03T07:18:01;3.35;;;0.70;;
31730;SDS011;18310;55.586;12.286;2023-04-03T07:21:04;3.33;;;0.90;;
31730;SDS011;18310;55.586;12.286;2023-04-03T07:24:08;4.10;;;0.88;;
31730;SDS011;18310;55.586;12.286;2023-04-03T07:27:18;2.47;;;0.93;;
31730;SDS011;18310;55.586;12.286;2023-04-03T07:30:21;3.92;;;0.73;;
31730;SDS011;18310;55.586;12.286;2023-04-03T07:33:25;2.30;;;0.63;;
31730;SDS011;18310;55.586;12.286;2023-04-03T07:36:28;2.53;;;0.68;;
31730;SDS011;18310;55.586;12.286;2023-04-03T07:39:35;3.20;;;0.77;;
31730;SDS011;18310;55.586;12.286;2023-04-03T07:42:40;5.10;;;0.57;;
31730;SDS011;18310;55.586;12.286;2023-04-03T07:45:45;4.55;;;0.70;;
31730;SDS011;18310;55.586;12.286;2023-04-03T07:48:51;1.85;;;0.70;;
31730;SDS011;18310;55.586;12.286;2023-04-03T07:51:57;4.95;;;0.63;;
31730;SDS011;18310;55.586;12.286;2023-04-03T07:55:01;2.10;;;0.60;;
31730;SDS011;18310;55.586;12.286;2023-04-03T07:58:06;3.10;;;0.43;;
31730;SDS011;18310;55.586;12.286;2023-04-03T08:01:09;2.30;;;0.60;;
31730;SDS011;18310;55.586;12.286;2023-04-03T08:04:12;1.47;;;0.50;;
31730;SDS011;18310;55.586;12.286;2023-04-03T08:07:16;2.97;;;0.60;;
31730;SDS011;18310;55.586;12.286;2023-04-03T08:10:19;1.58;;;0.52;;
31730;SDS011;18310;55.586;12.286;2023-04-03T08:13:24;1.55;;;0.52;;
31730;SDS011;18310;55.586;12.286;2023-04-03T08:16:28;3.50;;;0.88;;
31730;SDS011;18310;55.586;12.286;2023-04-03T08:19:31;4.30;;;0.70;;
31730;SDS011;18310;55.586;12.286;2023-04-03T08:22:35;3.45;;;0.57;;
31730;SDS011;18310;55.586;12.286;2023-04-03T08:25:38;3.05;;;0.60;;
31730;SDS011;18310;55.586;12.286;2023-04-03T08:28:44;1.52;;;0.47;;
31730;SDS011;18310;55.586;12.286;2023-04-03T08:31:48;2.45;;;0.60;;
31730;SDS011;18310;55.586;12.286;2023-04-03T08:34:52;4.32;;;0.57;;
31730;SDS011;18310;55.586;12.286;2023-04-03T08:37:56;2.63;;;0.80;;
31730;SDS011;18310;55.586;12.286;2023-04-03T08:41:00;2.40;;;0.67;;
31730;SDS011;18310;55.586;12.286;2023-04-03T08:44:11;4.22;;;0.70;;
31730;SDS011;18310;55.586;12.286;2023-04-03T08:47:20;2.25;;;0.47;;
31730;SDS011;18310;55.586;12.286;2023-04-03T08:50:29;1.83;;;0.70;;
31730;SDS011;18310;55.586;12.286;2023-04-03T08:53:37;2.67;;;0.77;;
31730;SDS011;18310;55.586;12.286;2023-04-03T08:56:44;1.50;;;0.50;;
31730;SDS011;18310;55.586;12.286;2023-04-03T08:59:49;3.38;;;0.70;;
31730;SDS011;18310;55.586;12.286;2023-04-03T09:02:54;4.72;;;0.60;;
31730;SDS011;18310;55.586;12.286;2023-04-03T09:06:00;1.45;;;0.30;;
31730;SDS011;18310;55.586;12.286;2023-04-03T09:09:10;2.13;;;0.70;;
31730;SDS011;18310;55.586;12.286;2023-04-03T09:12:18;1.98;;;0.45;;
31730;SDS011;18310;55.586;12.286;2023-04-03T09:15:28;4.22;;;0.60;;
31730;SDS011;18310;55.586;12.286;2023-04-03T09:18:41;1.90;;;0.40;;
31730;SDS011;18310;55.586;12.286;2023-04-03T09:21:51;5.25;;;0.85;;
31730;SDS011;18310;55.586;12.286;2023-04-03T09:31:10;3.58;;;0.50;;
31730;SDS011;18310;55.586;12.286;2023-04-03T09:34:22;4.43;;;0.77;;
31730;SDS011;18310;55.586;12.286;2023-04-03T09:37:39;2.90;;;0.52;;
31730;SDS011;18310;55.586;12.286;2023-04-03T09:40:45;1.55;;;0.57;;
31730;SDS011;18310;55.586;12.286;2023-04-03T09:43:51;2.75;;;0.40;;
31730;SDS011;18310;55.586;12.286;2023-04-03T09:46:57;1.95;;;0.47;;
31730;SDS011;18310;55.586;12.286;2023-04-03T09:50:10;3.78;;;0.50;;
31730;SDS011;18310;55.586;12.286;2023-04-03T09:53:25;5.50;;;0.57;;
31730;SDS011;18310;55.586;12.286;2023-04-03T09:56:31;3.00;;;0.70;;
31730;SDS011;18310;55.586;12.286;2023-04-03T09:59:37;1.23;;;0.30;;
31730;SDS011;18310;55.586;12.286;2023-04-03T10:02:45;3.10;;;0.60;;
31730;SDS011;18310;55.586;12.286;2023-04-03T10:05:54;5.18;;;0.57;;
31730;SDS011;18310;55.586;12.286;2023-04-03T10:09:01;6.80;;;0.93;;
31730;SDS011;18310;55.586;12.286;2023-04-03T10:12:09;4.97;;;0.85;;
31730;SDS011;18310;55.586;12.286;2023-04-03T10:15:17;5.20;;;0.80;;
31730;SDS011;18310;55.586;12.286;2023-04-03T10:18:29;1.92;;;0.90;;
31730;SDS011;18310;55.586;12.286;2023-04-03T10:21:40;3.33;;;1.02;;
31730;SDS011;18310;55.586;12.286;2023-04-03T10:24:54;3.17;;;0.80;;
31730;SDS011;18310;55.586;12.286;2023-04-03T10:28:05;1.08;;;0.45;;
31730;SDS011;18310;55.586;12.286;2023-04-03T10:31:16;2.25;;;0.60;;
31730;SDS011;18310;55.586;12.286;2023-04-03T10:34:24;5.20;;;0.80;;
31730;SDS011;18310;55.586;12.286;2023-04-03T10:37:34;1.58;;;0.60;;
31730;SDS011;18310;55.586;12.286;2023-04-03T10:40:47;3.92;;;0.52;;
31730;SDS011;18310;55.586;12.286;2023-04-03T10:43:59;3.63;;;0.68;;
31730;SDS011;18310;55.586;12.286;2023-04-03T10:50:25;1.90;;;0.47;;
31730;SDS011;18310;55.586;12.286;2023-04-03T10:53:34;2.97;;;0.30;;
31730;SDS011;18310;55.586;12.286;2023-04-03T10:56:42;2.20;;;0.30;;
31730;SDS011;18310;55.586;12.286;2023-04-03T10:59:59;2.45;;;0.32;;
31730;SDS011;18310;55.586;12.286;2023-04-03T11:03:05;2.40;;;0.50;;
31730;SDS011;18310;55.586;12.286;2023-04-03T11:06:16;2.83;;;0.52;;
31730;SDS011;18310;55.586;12.286;2023-04-03T11:09:24;5.20;;;0.50;;
31730;SDS011;18310;55.586;12.286;2023-04-03T11:12:33;4.07;;;0.55;;
31730;SDS011;18310;55.586;12.286;2023-04-03T11:15:43;3.47;;;0.50;;
31730;SDS011;18310;55.586;12.286;2023-04-03T11:18:49;1.52;;;0.40;;
31730;SDS011;18310;55.586;12.286;2023-04-03T11:22:00;1.55;;;0.40;;
31730;SDS011;18310;55.586;12.286;2023-04-03T11:25:14;3.38;;;0.32;;
31730;SDS011;18310;55.586;12.286;2023-04-03T11:28:23;2.33;;;0.40;;
31730;SDS011;18310;55.586;12.286;2023-04-03T11:31:33;1.27;;;0.30;;
31730;SDS011;18310;55.586;12.286;2023-04-03T11:34:47;6.80;;;0.50;;
31730;SDS011;18310;55.586;12.286;2023-04-03T11:37:54;2.35;;;0.63;;
31730;SDS011;18310;55.586;12.286;2023-04-03T11:40:58;2.15;;;0.52;;
31730;SDS011;18310;55.586;12.286;2023-04-03T11:44:03;4.25;;;0.88;;
31730;SDS011;18310;55.586;12.286;2023-04-03T11:47:10;3.33;;;0.63;;
31730;SDS011;18310;55.586;12.286;2023-04-03T11:50:30;2.22;;;0.50;;
31730;SDS011;18310;55.586;12.286;2023-04-03T11:53:47;7.43;;;0.80;;
31730;SDS011;18310;55.586;12.286;2023-04-03T11:56:51;1.33;;;0.45;;
31730;SDS011;18310;55.586;12.286;2023-04-03T11:59:55;3.83;;;0.50;;
31730;SDS011;18310;55.586;12.286;2023-04-03T12:02:58;2.05;;;0.43;;
31730;SDS011;18310;55.586;12.286;2023-04-03T12:09:59;2.42;;;0.80;;
31730;SDS011;18310;55.586;12.286;2023-04-03T12:13:12;3.08;;;0.55;;
31730;SDS011;18310;55.586;12.286;2023-04-03T12:26:22;7.55;;;0.85;;
31730;SDS011;18310;55.586;12.286;2023-04-03T12:29:41;1.95;;;0.60;;
31730;SDS011;18310;55.586;12.286;2023-04-03T12:32:56;4.20;;;0.60;;
31730;SDS011;18310;55.586;12.286;2023-04-03T12:36:15;1.98;;;0.50;;
31730;SDS011;18310;55.586;12.286;2023-04-03T12:39:39;1.60;;;0.50;;
31730;SDS011;18310;55.586;12.286;2023-04-03T12:42:57;1.92;;;0.57;;
31730;SDS011;18310;55.586;12.286;2023-04-03T12:46:21;2.65;;;0.50;;
31730;SDS011;18310;55.586;12.286;2023-04-03T12:49:30;2.90;;;0.65;;
31730;SDS011;18310;55.586;12.286;2023-04-03T12:52:39;2.38;;;0.45;;
31730;SDS011;18310;55.586;12.286;2023-04-03T12:55:45;8.05;;;0.90;;
31730;SDS011;18310;55.586;12.286;2023-04-03T12:58:50;2.30;;;0.50;;
31730;SDS011;18310;55.586;12.286;2023-04-03T13:01:54;2.40;;;0.60;;
31730;SDS011;18310;55.586;12.286;2023-04-03T13:04:59;3.80;;;0.88;;
31730;SDS011;18310;55.586;12.286;2023-04-03T13:08:10;2.90;;;0.45;;
31730;SDS011;18310;55.586;12.286;2023-04-03T13:11:17;2.90;;;0.80;;
31730;SDS011;18310;55.586;12.286;2023-04-03T13:14:26;3.13;;;0.70;;
31730;SDS011;18310;55.586;12.286;2023-04-03T13:17:30;2.65;;;0.80;;
31730;SDS011;18310;55.586;12.286;2023-04-03T13:20:36;3.42;;;0.82;;
31730;SDS011;18310;55.586;12.286;2023-04-03T13:23:42;3.55;;;0.57;;
31730;SDS011;18310;55.586;12.286;2023-04-03T13:26:54;4.90;;;0.73;;
31730;SDS011;18310;55.586;12.286;2023-04-03T13:29:59;1.35;;;0.32;;
31730;SDS011;18310;55.586;12.286;2023-04-03T13:33:05;2.45;;;0.63;;
31730;SDS011;18310;55.586;12.286;2023-04-03T13:36:24;1.15;;;0.38;;
31730;SDS011;18310;55.586;12.286;2023-04-03T13:39:34;3.05;;;0.88;;
31730;SDS011;18310;55.586;12.286;2023-04-03T13:42:39;2.58;;;0.70;;
31730;SDS011;18310;55.586;12.286;2023-04-03T13:45:54;3.45;;;0.70;;
31730;SDS011;18310;55.586;12.286;2023-04-03T13:49:17;6.10;;;1.33;;
31730;SDS011;18310;55.586;12.286;2023-04-03T13:52:22;5.63;;;0.67;;
31730;SDS011;18310;55.586;12.286;2023-04-03T13:55:32;5.07;;;0.80;;
31730;SDS011;18310;55.586;12.286;2023-04-03T13:58:38;2.60;;;0.73;;
31730;SDS011;18310;55.586;12.286;2023-04-03T14:01:45;3.05;;;0.55;;
31730;SDS011;18310;55.586;12.286;2023-04-03T14:04:52;3.58;;;0.98;;
31730;SDS011;18310;55.586;12.286;2023-04-03T14:08:00;6.10;;;0.65;;
31730;SDS011;18310;55.586;12.286;2023-04-03T14:11:03;1.40;;;0.47;;
31730;SDS011;18310;55.586;12.286;2023-04-03T14:14:10;2.85;;;0.63;;
31730;SDS011;18310;55.586;12.286;2023-04-03T14:17:19;6.95;;;0.90;;
31730;SDS011;18310;55.586;12.286;2023-04-03T14:20:26;2.50;;;0.52;;
31730;SDS011;18310;55.586;12.286;2023-04-03T14:23:31;4.30;;;0.65;;
31730;SDS011;18310;55.586;12.286;2023-04-03T14:26:35;2.15;;;0.88;;
31730;SDS011;18310;55.586;12.286;2023-04-03T14:29:38;2.57;;;0.47;;
31730;SDS011;18310;55.586;12.286;2023-04-03T14:32:43;2.70;;;0.30;;
31730;SDS011;18310;55.586;12.286;2023-04-03T14:35:47;2.53;;;0.50;;
31730;SDS011;18310;55.586;12.286;2023-04-03T14:38:52;2.65;;;0.57;;
31730;SDS011;18310;55.586;12.286;2023-04-03T14:41:57;2.95;;;0.57;;
31730;SDS011;18310;55.586;12.286;2023-04-03T14:45:01;6.50;;;0.70;;
31730;SDS011;18310;55.586;12.286;2023-04-03T14:48:09;2.88;;;0.40;;
31730;SDS011;18310;55.586;12.286;2023-04-03T14:51:18;3.28;;;0.40;;
31730;SDS011;18310;55.586;12.286;2023-04-03T14:54:22;2.92;;;0.40;;
31730;SDS011;18310;55.586;12.286;2023-04-03T14:57:30;2.35;;;0.38;;
31730;SDS011;18310;55.586;12.286;2023-04-03T15:02:22;3.67;;;0.77;;
31730;SDS011;18310;55.586;12.286;2023-04-03T15:05:29;2.60;;;0.52;;
31730;SDS011;18310;55.586;12.286;2023-04-03T15:08:33;1.55;;;0.35;;
31730;SDS011;18310;55.586;12.286;2023-04-03T15:11:36;2.20;;;0.30;;
31730;SDS011;18310;55.586;12.286;2023-04-03T15:14:39;4.18;;;0.55;;
31730;SDS011;18310;55.586;12.286;2023-04-03T15:17:59;1.30;;;0.32;;
31730;SDS011;18310;55.586;12.286;2023-04-03T15:21:03;3.58;;;0.35;;
31730;SDS011;18310;55.586;12.286;2023-04-03T15:24:08;3.10;;;0.40;;
31730;SDS011;18310;55.586;12.286;2023-04-03T15:27:12;1.42;;;0.35;;
31730;SDS011;18310;55.586;12.286;2023-04-03T15:30:18;1.55;;;0.30;;
31730;SDS011;18310;55.586;12.286;2023-04-03T15:33:24;1.40;;;0.38;;
31730;SDS011;18310;55.586;12.286;2023-04-03T15:36:28;2.63;;;0.30;;
31730;SDS011;18310;55.586;12.286;2023-04-03T15:39:35;2.13;;;0.55;;
31730;SDS011;18310;55.586;12.286;2023-04-03T15:42:39;3.60;;;0.73;;
31730;SDS011;18310;55.586;12.286;2023-04-03T15:45:43;6.45;;;0.60;;
31730;SDS011;18310;55.586;12.286;2023-04-03T15:48:48;1.83;;;0.43;;
31730;SDS011;18310;55.586;12.286;2023-04-03T15:51:52;1.23;;;0.47;;
31730;SDS011;18310;55.586;12.286;2023-04-03T15:54:56;4.50;;;0.50;;
31730;SDS011;18310;55.586;12.286;2023-04-03T15:58:00;5.28;;;0.40;;
31730;SDS011;18310;55.586;12.286;2023-04-03T16:04:09;1.50;;;0.40;;
31730;SDS011;18310;55.586;12.286;2023-04-03T16:07:16;4.30;;;0.68;;
31730;SDS011;18310;55.586;12.286;2023-04-03T16:10:19;1.98;;;0.50;;
31730;SDS011;18310;55.586;12.286;2023-04-03T16:13:23;1.42;;;0.50;;
31730;SDS011;18310;55.586;12.286;2023-04-03T16:16:26;2.58;;;0.63;;
31730;SDS011;18310;55.586;12.286;2023-04-03T16:19:32;0.98;;;0.30;;
31730;SDS011;18310;55.586;12.286;2023-04-03T16:22:36;1.45;;;0.50;;
31730;SDS011;18310;55.586;12.286;2023-04-03T16:25:40;1.23;;;0.45;;
31730;SDS011;18310;55.586;12.286;2023-04-03T16:28:47;2.88;;;0.40;;
31730;SDS011;18310;55.586;12.286;2023-04-03T16:31:51;1.63;;;0.40;;
31730;SDS011;18310;55.586;12.286;2023-04-03T16:34:55;1.20;;;0.47;;
31730;SDS011;18310;55.586;12.286;2023-04-03T16:37:59;2.45;;;0.40;;
31730;SDS011;18310;55.586;12.286;2023-04-03T16:41:02;2.03;;;0.50;;
31730;SDS011;18310;55.586;12.286;2023-04-03T16:44:06;1.80;;;0.57;;
31730;SDS011;18310;55.586;12.286;2023-04-03T16:47:10;0.90;;;0.30;;
31730;SDS011;18310;55.586;12.286;2023-04-03T16:50:17;3.85;;;0.93;;
31730;SDS011;18310;55.586;12.286;2023-04-03T16:53:21;1.80;;;0.40;;
31730;SDS011;18310;55.586;12.286;2023-04-03T16:56:24;1.10;;;0.30;;
31730;SDS011;18310;55.586;12.286;2023-04-03T16:59:28;0.80;;;0.30;;
31730;SDS011;18310;55.586;12.286;2023-04-03T17:02:32;3.80;;;0.57;;
31730;SDS011;18310;55.586;12.286;2023-04-03T17:05:37;1.20;;;0.38;;
31730;SDS011;18310;55.586;12.286;2023-04-03T17:08:41;6.75;;;0.68;;
31730;SDS011;18310;55.586;12.286;2023-04-03T17:11:44;2.63;;;0.57;;
31730;SDS011;18310;55.586;12.286;2023-04-03T17:14:50;1.75;;;0.50;;
31730;SDS011;18310;55.586;12.286;2023-04-03T17:17:53;1.33;;;0.43;;
31730;SDS011;18310;55.586;12.286;2023-04-03T17:20:58;7.30;;;0.70;;
31730;SDS011;18310;55.586;12.286;2023-04-03T17:24:04;1.80;;;0.45;;
31730;SDS011;18310;55.586;12.286;2023-04-03T17:27:10;1.50;;;0.50;;
31730;SDS011;18310;55.586;12.286;2023-04-03T17:30:14;3.33;;;0.80;;
31730;SDS011;18310;55.586;12.286;2023-04-03T17:33:18;3.47;;;0.68;;
31730;SDS011;18310;55.586;12.286;2023-04-03T17:36:23;1.30;;;0.40;;
31730;SDS011;18310;55.586;12.286;2023-04-03T17:39:27;2.20;;;0.60;;
31730;SDS011;18310;55.586;12.286;2023-04-03T17:42:30;2.08;;;0.50;;
31730;SDS011;18310;55.586;12.286;2023-04-03T17:45:34;1.03;;;0.30;;
31730;SDS011;18310;55.586;12.286;2023-04-03T17:48:38;3.73;;;0.73;;
31730;SDS011;18310;55.586;12.286;2023-04-03T17:51:44;2.50;;;0.60;;
31730;SDS011;18310;55.586;12.286;2023-04-03T17:54:48;3.03;;;0.82;;
31730;SDS011;18310;55.586;12.286;2023-04-03T17:57:51;3.85;;;0.85;;
31730;SDS011;18310;55.586;12.286;2023-04-03T18:00:55;2.45;;;0.68;;
31730;SDS011;18310;55.586;12.286;2023-04-03T18:03:59;2.70;;;0.60;;
31730;SDS011;18310;55.586;12.286;2023-04-03T18:07:05;3.05;;;0.40;;
31730;SDS011;18310;55.586;12.286;2023-04-03T18:10:10;1.50;;;0.55;;
31730;SDS011;18310;55.586;12.286;2023-04-03T18:13:16;3.05;;;0.60;;
31730;SDS011;18310;55.586;12.286;2023-04-03T18:16:19;2.93;;;0.87;;
31730;SDS011;18310;55.586;12.286;2023-04-03T18:19:23;7.67;;;1.03;;
31730;SDS011;18310;55.586;12.286;2023-04-03T18:22:31;1.27;;;0.30;;
31730;SDS011;18310;55.586;12.286;2023-04-03T18:25:35;1.60;;;0.47;;
31730;SDS011;18310;55.586;12.286;2023-04-03T18:28:39;0.77;;;0.30;;
31730;SDS011;18310;55.586;12.286;2023-04-03T18:31:46;2.78;;;0.75;;
31730;SDS011;18310;55.586;12.286;2023-04-03T18:34:52;1.25;;;0.40;;
31730;SDS011;18310;55.586;12.286;2023-04-03T18:37:57;1.70;;;0.57;;
31730;SDS011;18310;55.586;12.286;2023-04-03T18:41:00;2.15;;;0.50;;
31730;SDS011;18310;55.586;12.286;2023-04-03T18:44:07;1.13;;;0.40;;
31730;SDS011;18310;55.586;12.286;2023-04-03T18:47:12;1.52;;;0.50;;
31730;SDS011;18310;55.586;12.286;2023-04-03T18:50:16;2.13;;;0.87;;
31730;SDS011;18310;55.586;12.286;2023-04-03T18:53:21;2.30;;;0.73;;
31730;SDS011;18310;55.586;12.286;2023-04-03T18:56:25;2.17;;;0.43;;
31730;SDS011;18310;55.586;12.286;2023-04-03T18:59:28;1.23;;;0.50;;
31730;SDS011;18310;55.586;12.286;2023-04-03T19:02:32;1.87;;;0.40;;
31730;SDS011;18310;55.586;12.286;2023-04-03T19:05:38;1.92;;;0.55;;